Date,TemperatureHighF,TemperatureAvgF,TemperatureLowF,DewpointHighF,DewpointAvgF,DewpointLowF,HumidityHigh,HumidityAvg,HumidityLow,PressureMaxIn,PressureMinIn,WindSpeedMaxMPH,WindSpeedAvgMPH,GustSpeedMaxMPH,PrecipitationSumIn
2013-3-1,59.9,50.9,42.1,45.7,41.5,37.3,83,71,56,30.18,30.00,8,3,11,0.00
2013-3-2,59.0,52.2,44.8,49.4,45.4,40.6,86,78,70,30.00,29.86,10,4,14,0.00
2013-3-3,56.5,52.4,48.4,49.2,45.3,40.8,92,77,62,29.95,29.74,22,11,32,0.15
2013-3-4,62.2,51.8,43.9,46.4,43.0,38.8,83,73,54,30.16,29.95,12,3,13,0.00
2013-3-5,58.8,51.7,47.1,45.4,41.4,37.7,79,68,56,30.40,30.15,13,6,18,0.00
2013-3-6,58.8,51.6,44.2,42.7,39.9,36.1,74,65,52,30.38,30.12,9,5,14,0.00
2013-3-7,58.1,53.9,51.6,53.3,48.5,41.9,91,82,68,30.13,29.91,4,2,7,0.21
2013-3-8,63.1,56.3,51.4,56.5,52.7,49.5,94,88,72,29.91,29.83,7,2,10,0.00
2013-3-9,69.3,60.5,51.8,60.0,54.8,51.0,97,82,66,29.84,29.70,12,4,15,0.02
2013-3-10,68.0,61.6,56.5,56.1,53.1,50.4,85,74,58,29.80,29.69,13,5,18,0.00
2013-3-11,69.6,62.2,54.3,60.7,56.4,50.7,93,82,67,29.70,29.56,16,4,25,0.00
2013-3-12,68.7,61.9,56.8,51.9,49.3,47.5,74,64,50,29.70,29.56,19,8,24,0.00
2013-3-13,66.9,60.5,52.9,57.6,51.7,46.4,92,73,62,29.73,29.66,14,7,20,0.00
2013-3-14,66.6,62.0,57.9,57.8,55.0,46.0,91,78,64,29.68,29.27,20,11,32,0.00
2013-3-15,61.0,56.3,50.5,48.4,45.5,41.5,72,67,59,29.59,29.36,19,9,26,0.00
2013-3-16,57.2,51.5,46.9,43.4,40.8,37.8,78,67,54,29.99,29.58,19,7,26,0.00
2013-3-17,57.9,50.5,43.9,41.3,38.9,37.3,78,65,48,30.16,29.98,9,5,12,0.00
2013-3-18,57.9,52.7,46.2,50.5,44.7,38.1,85,74,62,30.17,29.93,11,6,16,0.00
2013-3-19,63.3,58.9,54.9,57.1,53.6,49.3,91,83,77,29.94,29.75,17,9,21,0.00
2013-3-20,67.8,60.7,51.6,58.3,54.6,50.0,94,81,67,29.89,29.78,12,3,18,0.00
2013-3-21,67.3,63.0,58.3,57.9,55.6,46.3,88,77,60,29.78,29.51,22,8,29,0.00
2013-3-22,63.1,57.9,52.9,47.1,42.6,38.0,75,57,45,29.74,29.52,32,20,40,0.00
2013-3-23,66.4,57.3,47.5,46.9,38.2,27.5,73,50,29,29.95,29.74,11,4,15,0.00
2013-3-24,64.4,58.1,49.6,56.5,50.7,43.4,85,77,64,29.99,29.91,17,6,24,0.00
2013-3-25,66.4,60.5,54.7,57.5,55.1,50.6,93,83,69,29.92,29.58,22,9,32,0.00
2013-3-26,69.4,61.5,56.5,56.9,52.4,49.3,92,72,60,29.62,29.50,18,8,26,0.00
2013-3-27,69.6,61.6,54.5,58.0,52.1,47.3,77,71,60,29.81,29.61,12,6,19,0.00
2013-3-28,67.3,59.9,56.3,57.2,53.2,50.0,88,79,68,30.03,29.81,8,3,11,0.12
2013-3-29,68.0,60.5,54.1,57.7,54.5,51.3,91,81,68,30.04,29.97,8,3,11,0.00
2013-3-30,73.0,65.2,57.4,60.2,56.0,53.1,86,73,58,29.97,29.79,14,4,17,0.00
2013-3-31,68.0,63.3,59.7,61.3,57.8,54.0,91,82,74,29.83,29.71,12,5,16,0.00